CheckWX is a tool to help pilots better visualize weather data.  It is not intended as a substitute for an official pre-flight weather briefing.

08:15:45 UTC

KIDA METAR
Idaho Falls Regional Airport
Idaho Falls, Idaho, USA
Current

23 mins ago

KIDA 220753Z AUTO 06003KT 10SM CLR M19/M21 A2987 RMK AO2 SLP185 T11891211
Observed
Feb-22 @ 07:53 UTC
Wind
  • 060° at 3 KTS
Visibility
10 SM
Flight Rules
VFR
Cloud Levels
  • Clear skies
Temperature
-19°C / -2°F
Dewpoint
-21°C / -6°F
Humidity
84%
Altimeter
29.87" Hg
Pressure
1018.5 hPa
Previous

1 hour ago

KIDA 220653Z AUTO 04007KT 10SM CLR M16/M19 A2986 RMK AO2 SLP180 T11561194 410441189
Observed
Feb-22 @ 06:53 UTC
Wind
  • 040° at 7 KTS
Visibility
10 SM
Flight Rules
VFR
Cloud Levels
  • Clear skies
Temperature
-16°C / 3°F
Dewpoint
-19°C / -2°F
Humidity
78%
Altimeter
29.86" Hg
Pressure
1018 hPa
Previous

2 hours ago

KIDA 220553Z AUTO 01010KT 10SM CLR M15/M19 A2986 RMK AO2 SLP183 T11501189 11067 21150 51010
Observed
Feb-22 @ 05:53 UTC
Wind
  • 010° at 10 KTS
Visibility
10 SM
Flight Rules
VFR
Cloud Levels
  • Clear skies
Temperature
-15°C / 5°F
Dewpoint
-19°C / -2°F
Humidity
72%
Altimeter
29.86" Hg
Pressure
1018.3 hPa